CYBCCYQB

Guest
Details From CYBC - BAIE COMEAU
To CYQB - Quebec Jean Lesage Intl
Flight Number -
Tags decoded
Created
Modified
Stats Distance 192 nm / 356 km
Max Altitude 0 ft / 0 m
Waypoints 4
Social Downloads 0
Likes 0
Share VATSIM

Download

Looking for another format? Having issues loading an existing format? Contact us
Advertisement - Login to hide

Notes

Requested: CYBC MIVAX SIMTO SIMTO2 CYQB Unmatched points: SIMTO2

Route

CYBC MIVAX SIMTO CYQB

ID Type Via Altitude Latitude Longitude Leg Dist Tot Dist Heading (true) Name
O CYBC APT - 0 ft / 0 m 49.13227˚ -68.20721˚ - 0 nm - BAIE COMEAU
MIVAX FIX - 0 ft / 0 m 47.43917˚ -70.15944˚ 128 nm 128 nm 218° / 217° -
SIMTO FIX - 0 ft / 0 m 47.05639˚ -70.82917˚ 35 nm 163 nm 230° / 230° -
O CYQB APT - 0 ft / 0 m 46.78946˚ -71.39276˚ 28 nm 191 nm 235° / 235° Quebec Jean Lesage Intl

Altitude Profile

Advertisement - Login to hide

Weather


0- 5 10 15 20 25 30 35+ Temperature / ° C

Clouds and Precipitation
Forecast for 2018-05-26 12:00 UTC. Updated 3 hours ago

Ground ~20,000 ft ~40,000 ft Winds

CYBC

Details ICAO CYBC (YBC)
Name BAIE COMEAU
Region Canada
Timezone America/Montreal (UTC-4.0)
Stats Elevation 71 ft / 22 m (AMSL)
Location 49.132270° -68.207207°
Runways 1
Magnetic Variation 17.786° W

METAR

CYBC 261400Z AUTO 36009KT 300V030 9SM SCT055 11/M01 A2981 RMK SLP096

Decode

TAF

TAF CYBC 261338Z 2614/2702 33008KT P6SM SCT050 BECMG 2617/2619 08008KT RMK FCST BASED ON AUTO OBS. NXT FCST BY 262000Z

Decode

Departure Runways

ID Width Length Bearing (true) Bearing (mag) Surface Threshold Offset Overrun Length
10 150 ft / 46 m 5,984 ft / 1,824 m 80.50° 98.29° Asphalt 0 ft / 0 m 0 ft / 0 m
28 150 ft / 46 m 5,984 ft / 1,824 m 260.52° 278.31° Asphalt 0 ft / 0 m 0 ft / 0 m

CYQB

Details ICAO CYQB (YQB)
Name Quebec Jean Lesage Intl
Region Canada
Timezone America/Montreal (UTC-4.0)
Stats Elevation 244 ft / 74 m (AMSL)
Location 46.789458° -71.392764°
Runways 2
Magnetic Variation 15.794° W

METAR

CYQB 261400Z 06007KT 30SM FEW090 OVC260 11/08 A2980 RMK AC2CI6 SLP093

Decode

TAF

TAF CYQB 261138Z 2612/2712 07007KT P6SM FEW007 OVC080 FM261400 07008KT P6SM FEW040 BKN240 FM270000 05008KT P6SM SKC BECMG 2710/2712 07010G20KT RMK NXT FCST BY 261800Z

Decode

Destination Runways

ID Width Length Bearing (true) Bearing (mag) Surface Threshold Offset Overrun Length
06 150 ft / 46 m 9,020 ft / 2,749 m 44.00° 59.79° Asphalt 0 ft / 0 m 0 ft / 0 m
12 150 ft / 46 m 5,678 ft / 1,731 m 97.58° 113.37° Asphalt 0 ft / 0 m 0 ft / 0 m
24 150 ft / 46 m 9,020 ft / 2,749 m 224.02° 239.81° Asphalt 0 ft / 0 m 0 ft / 0 m
30 150 ft / 46 m 5,678 ft / 1,731 m 277.60° 293.39° Asphalt 0 ft / 0 m 0 ft / 0 m

Approach Navaids

Runway Type Ident Frequency Range Bearing (true) Bearing (mag) Slope Elevation
06 Localiser IQB 109.50 MHz 18 nm / 33 km 44.33° 60.12° - 197 ft / 60 m (AMSL)
06 Glidescope IQB 109.50 MHz 18 nm / 33 km 42.00° 57.79° 3.00° 233 ft / 71 m (AMSL)

Popular Alternatives